Time;durP1;ratioP1;P1;durP2;ratioP2;P2;SDS_P1;SDS_P2;PMS_P1;PMS_P2;Temp;Humidity;BMP_temperature;BMP_pressure;BME280_temperature;BME280_humidity;BME280_pressure;Samples;Min_cycle;Max_cycle;Signal;HPM_P1;HPM_P2
2022/02/13 00:00:43;;;;;;;13.80;9.83;;;4.60;99.90;;;;;;5081044;28;20497;-74
2022/02/13 00:03:09;;;;;;;18.90;11.87;;;4.50;99.90;;;;;;5058423;28;20441;-74
2022/02/13 00:05:35;;;;;;;17.73;11.40;;;4.60;99.90;;;;;;5080692;28;20990;-74
2022/02/13 00:08:00;;;;;;;16.93;10.93;;;4.50;99.90;;;;;;5081549;28;20729;-74
2022/02/13 00:10:26;;;;;;;16.67;11.37;;;4.60;99.90;;;;;;5083112;28;20206;-74
2022/02/13 00:12:52;;;;;;;17.57;11.10;;;4.40;99.90;;;;;;5061511;28;20191;-74
2022/02/13 00:15:18;;;;;;;13.37;10.43;;;4.40;99.90;;;;;;5081251;28;20464;-74
2022/02/13 00:17:43;;;;;;;12.40;10.00;;;4.50;99.90;;;;;;5080111;28;20888;-73
2022/02/13 00:20:09;;;;;;;20.10;11.77;;;4.40;99.90;;;;;;5064532;28;20213;-74
2022/02/13 00:22:35;;;;;;;13.40;11.10;;;4.50;99.90;;;;;;5079314;28;20273;-74
2022/02/13 00:25:01;;;;;;;15.13;11.13;;;4.60;99.90;;;;;;5081820;28;20519;-74
2022/02/13 00:27:27;;;;;;;16.67;10.83;;;4.40;99.90;;;;;;5081780;28;20270;-75
2022/02/13 00:29:52;;;;;;;19.80;12.43;;;4.30;99.90;;;;;;5060038;28;20727;-74
2022/02/13 00:32:18;;;;;;;14.00;10.40;;;4.30;99.90;;;;;;5082675;28;20230;-73
2022/02/13 00:34:47;;;;;;;17.10;11.63;;;4.20;99.90;;;;;;5080476;28;20236;-73
2022/02/13 00:37:12;;;;;;;13.37;10.43;;;4.30;99.90;;;;;;5085053;28;20640;-73
2022/02/13 00:39:38;;;;;;;14.50;9.93;;;4.30;99.90;;;;;;5086015;28;20451;-72
2022/02/13 00:42:04;;;;;;;16.73;10.57;;;4.00;99.90;;;;;;5082199;28;20190;-73
2022/02/13 00:44:30;;;;;;;15.00;10.60;;;3.90;99.90;;;;;;5081965;28;20252;-73
2022/02/13 00:46:55;;;;;;;17.03;10.10;;;3.90;99.90;;;;;;5063592;28;20422;-74
2022/02/13 00:49:22;;;;;;;13.57;10.80;;;4.30;99.90;;;;;;5081376;28;20327;-74
2022/02/13 00:51:49;;;;;;;12.33;8.63;;;4.30;99.90;;;;;;5082071;28;20190;-74
2022/02/13 00:54:15;;;;;;;14.60;9.90;;;4.20;99.90;;;;;;5079864;28;20811;-73
2022/02/13 00:56:40;;;;;;;16.73;9.50;;;4.10;99.90;;;;;;5078382;28;20468;-72
2022/02/13 00:59:06;;;;;;;10.27;8.10;;;4.20;99.90;;;;;;5081933;28;20436;-74
2022/02/13 01:01:31;;;;;;;13.00;8.83;;;4.10;99.90;;;;;;5081163;28;20202;-73
2022/02/13 01:03:57;;;;;;;16.60;10.47;;;4.30;99.90;;;;;;5061069;28;20197;-73
2022/02/13 01:06:24;;;;;;;14.17;9.67;;;4.30;99.90;;;;;;5081010;28;20201;-74
2022/02/13 01:08:50;;;;;;;11.20;8.97;;;4.20;99.90;;;;;;5055434;28;20197;-74
2022/02/13 01:11:16;;;;;;;13.37;9.50;;;4.20;99.90;;;;;;5082600;28;20966;-74
2022/02/13 01:13:44;;;;;;;16.07;10.03;;;4.20;99.90;;;;;;5084418;28;20444;-73
2022/02/13 01:16:10;;;;;;;16.23;11.20;;;4.20;99.90;;;;;;5079336;28;20198;-74
2022/02/13 01:18:36;;;;;;;17.63;10.90;;;4.20;99.90;;;;;;5077029;28;20444;-73
2022/02/13 01:21:02;;;;;;;16.60;9.80;;;4.20;99.90;;;;;;5073159;28;20480;-74
2022/02/13 01:23:28;;;;;;;14.40;10.07;;;4.20;99.90;;;;;;5076218;28;20263;-74
2022/02/13 01:25:54;;;;;;;14.73;9.97;;;4.00;99.90;;;;;;5077804;28;20485;-74
2022/02/13 01:28:19;;;;;;;14.47;10.10;;;4.00;99.90;;;;;;5080071;28;20239;-74
2022/02/13 01:30:46;;;;;;;13.87;10.30;;;4.00;99.90;;;;;;5059536;28;20203;-74
2022/02/13 01:33:12;;;;;;;15.00;10.30;;;4.10;99.90;;;;;;5079861;28;20217;-74
2022/02/13 01:35:37;;;;;;;16.80;10.57;;;4.00;99.90;;;;;;5058112;28;20544;-74
2022/02/13 01:38:03;;;;;;;12.67;9.47;;;3.80;99.90;;;;;;5060058;28;20224;-74
2022/02/13 01:40:29;;;;;;;13.90;9.90;;;3.60;99.90;;;;;;5058467;28;20210;-74
2022/02/13 01:42:54;;;;;;;16.53;9.97;;;3.50;99.90;;;;;;5077661;28;20182;-73
2022/02/13 01:45:20;;;;;;;17.20;10.73;;;3.60;99.90;;;;;;5077918;28;20668;-74
2022/02/13 01:47:46;;;;;;;19.53;9.90;;;3.40;99.90;;;;;;5058873;28;20214;-74
2022/02/13 01:50:12;;;;;;;13.17;9.83;;;3.50;99.90;;;;;;5076977;28;20578;-73
2022/02/13 01:52:39;;;;;;;14.40;9.00;;;3.20;99.90;;;;;;5078730;28;20630;-73
2022/02/13 01:55:06;;;;;;;15.67;9.97;;;3.50;99.90;;;;;;5061107;28;20214;-73
2022/02/13 01:57:32;;;;;;;12.90;9.60;;;3.50;99.90;;;;;;5076209;28;20616;-73
2022/02/13 01:59:58;;;;;;;12.60;9.17;;;3.70;99.90;;;;;;5077458;28;20464;-73
2022/02/13 02:02:24;;;;;;;17.23;10.00;;;3.70;99.90;;;;;;5076434;28;20798;-74
2022/02/13 02:04:54;;;;;;;12.13;8.40;;;3.40;99.90;;;;;;5076893;28;20186;-73
2022/02/13 02:07:19;;;;;;;14.37;8.30;;;3.40;99.90;;;;;;5055628;28;20178;-74
2022/02/13 02:09:55;;;;;;;14.77;9.20;;;3.50;99.90;;;;;;5079232;28;20473;-74
2022/02/13 02:12:20;;;;;;;10.87;8.47;;;3.60;99.90;;;;;;5077829;28;20208;-74
2022/02/13 02:14:46;;;;;;;9.40;7.43;;;3.90;99.90;;;;;;5076542;28;20476;-74
2022/02/13 02:17:12;;;;;;;12.63;8.70;;;3.90;99.90;;;;;;5060885;28;20182;-73
2022/02/13 02:19:38;;;;;;;9.90;8.50;;;3.60;99.90;;;;;;5082373;28;20444;-74
2022/02/13 02:22:08;;;;;;;11.80;8.03;;;3.60;99.90;;;;;;5080736;28;20236;-74
2022/02/13 02:24:34;;;;;;;12.80;8.60;;;3.50;99.90;;;;;;5083193;28;20244;-74
2022/02/13 02:27:00;;;;;;;9.57;7.60;;;3.50;99.90;;;;;;5080416;28;20436;-74
2022/02/13 02:29:29;;;;;;;10.20;8.00;;;3.60;99.90;;;;;;5062362;28;20448;-75
2022/02/13 02:31:55;;;;;;;11.70;7.53;;;3.60;99.90;;;;;;5079694;28;20501;-75
2022/02/13 02:34:21;;;;;;;13.10;8.30;;;3.70;99.90;;;;;;5082573;28;20970;-75
2022/02/13 02:36:47;;;;;;;11.67;7.70;;;3.60;99.90;;;;;;5079670;28;20499;-74
2022/02/13 02:39:12;;;;;;;10.37;7.50;;;3.70;99.90;;;;;;5062745;28;20648;-74
2022/02/13 02:41:38;;;;;;;11.97;7.60;;;3.50;99.90;;;;;;5075271;28;20565;-74
2022/02/13 02:44:04;;;;;;;9.93;7.43;;;3.20;99.90;;;;;;5080420;28;20188;-74
2022/02/13 02:46:30;;;;;;;8.47;7.20;;;3.50;99.90;;;;;;5062724;28;21539;-74
2022/02/13 02:48:56;;;;;;;9.90;7.17;;;3.30;99.90;;;;;;5075710;28;20525;-74
2022/02/13 02:51:22;;;;;;;8.73;7.83;;;3.30;99.90;;;;;;5080188;28;20467;-74
2022/02/13 02:53:48;;;;;;;13.53;7.77;;;2.90;99.90;;;;;;5079476;28;20440;-75
2022/02/13 02:56:14;;;;;;;13.47;7.23;;;3.10;99.90;;;;;;5080347;28;20472;-74
2022/02/13 02:58:39;;;;;;;12.67;8.23;;;3.30;99.90;;;;;;5062227;28;20182;-74
2022/02/13 03:01:09;;;;;;;8.03;6.67;;;3.30;99.90;;;;;;5062838;28;20300;-75
2022/02/13 03:03:35;;;;;;;8.30;6.50;;;3.50;99.90;;;;;;5078577;28;20440;-75
2022/02/13 03:06:01;;;;;;;7.90;6.60;;;3.20;99.90;;;;;;5080375;28;20470;-74
2022/02/13 03:08:26;;;;;;;9.77;7.40;;;3.30;99.90;;;;;;5080432;28;20527;-74
2022/02/13 03:10:52;;;;;;;11.00;7.20;;;3.10;99.90;;;;;;5075121;28;21344;-73
2022/02/13 03:13:22;;;;;;;9.57;7.80;;;3.10;99.90;;;;;;5076485;28;20194;-75
2022/02/13 03:15:49;;;;;;;12.67;7.63;;;3.40;99.90;;;;;;5062351;28;20471;-74
2022/02/13 03:18:18;;;;;;;9.43;7.10;;;3.30;99.90;;;;;;5072585;28;20443;-74
2022/02/13 03:20:48;;;;;;;11.10;7.43;;;3.40;99.90;;;;;;5062270;28;20459;-72
2022/02/13 03:23:16;;;;;;;18.83;7.47;;;3.40;99.90;;;;;;5077406;28;20483;-73
2022/02/13 03:25:42;;;;;;;10.50;6.90;;;3.40;99.90;;;;;;5076179;28;20436;-73
2022/02/13 03:28:08;;;;;;;13.10;7.07;;;3.50;99.90;;;;;;5056628;28;20467;-73
2022/02/13 03:30:35;;;;;;;10.27;7.60;;;3.60;99.90;;;;;;5077414;28;20954;-73
2022/02/13 03:33:04;;;;;;;15.97;9.07;;;3.60;99.90;;;;;;5079071;28;20428;-72
2022/02/13 03:35:30;;;;;;;10.90;8.60;;;3.60;99.90;;;;;;5079101;28;20739;-74
2022/02/13 03:37:55;;;;;;;12.60;7.87;;;3.60;99.90;;;;;;5080611;28;20938;-73
2022/02/13 03:40:21;;;;;;;12.87;7.70;;;3.70;99.90;;;;;;5063119;28;20205;-74
2022/02/13 03:42:47;;;;;;;10.33;7.87;;;3.60;99.90;;;;;;5062702;28;20980;-74
2022/02/13 03:45:14;;;;;;;10.67;7.70;;;3.60;99.90;;;;;;5063542;28;20506;-73
2022/02/13 03:47:40;;;;;;;9.60;7.73;;;3.50;99.90;;;;;;5082558;28;20186;-74
2022/02/13 03:50:07;;;;;;;10.80;6.90;;;3.40;99.90;;;;;;5083695;28;20962;-74
2022/02/13 03:52:33;;;;;;;13.10;7.33;;;3.40;99.90;;;;;;5082625;28;20433;-74
2022/02/13 03:55:00;;;;;;;11.60;6.70;;;2.80;99.90;;;;;;5080315;28;20486;-74
2022/02/13 03:57:26;;;;;;;9.80;7.70;;;2.80;99.90;;;;;;5054171;28;20202;-74
2022/02/13 03:59:52;;;;;;;9.93;7.17;;;2.70;99.90;;;;;;5083130;28;20440;-72
2022/02/13 04:02:18;;;;;;;9.70;6.40;;;2.60;99.90;;;;;;5078640;28;20926;-74
2022/02/13 04:04:43;;;;;;;11.20;6.73;;;2.80;99.90;;;;;;5076604;28;20431;-73
2022/02/13 04:07:09;;;;;;;8.43;6.30;;;2.80;99.90;;;;;;5078274;28;20536;-73
2022/02/13 04:09:35;;;;;;;12.57;7.07;;;2.90;99.90;;;;;;5079487;28;20321;-73
2022/02/13 04:12:01;;;;;;;11.20;6.90;;;3.00;99.90;;;;;;5081412;28;20640;-73
2022/02/13 04:14:26;;;;;;;10.53;7.00;;;2.90;99.90;;;;;;5077255;28;20436;-73
2022/02/13 04:16:52;;;;;;;12.43;7.10;;;3.00;99.90;;;;;;5080247;28;20219;-72
2022/02/13 04:19:18;;;;;;;9.47;6.90;;;2.70;99.90;;;;;;5076184;28;20256;-73
2022/02/13 04:21:43;;;;;;;11.83;6.83;;;2.60;99.90;;;;;;5079438;28;20257;-73
2022/02/13 04:24:09;;;;;;;10.73;7.30;;;2.90;99.90;;;;;;5078773;28;20210;-74
2022/02/13 04:26:34;;;;;;;9.53;6.80;;;3.20;99.90;;;;;;5080017;28;20278;-74
2022/02/13 04:29:00;;;;;;;10.77;6.57;;;3.20;99.90;;;;;;5079777;28;20191;-74
2022/02/13 04:31:26;;;;;;;9.67;6.17;;;3.20;99.90;;;;;;5079188;28;20210;-73
2022/02/13 04:33:51;;;;;;;11.30;7.63;;;3.10;99.90;;;;;;5080993;28;20191;-73
2022/02/13 04:36:17;;;;;;;8.77;7.27;;;3.10;99.90;;;;;;5078142;28;20258;-73
2022/02/13 04:38:43;;;;;;;10.73;6.97;;;3.20;99.90;;;;;;5079929;28;20167;-73
2022/02/13 04:41:08;;;;;;;11.00;7.03;;;3.30;99.90;;;;;;5077191;28;20214;-74
2022/02/13 04:43:34;;;;;;;10.30;7.20;;;2.90;99.90;;;;;;5079849;28;20192;-73
2022/02/13 04:46:00;;;;;;;12.67;6.80;;;2.90;99.90;;;;;;5078229;28;20741;-73
2022/02/13 04:48:26;;;;;;;9.90;6.50;;;3.10;99.90;;;;;;5079825;28;20179;-73
2022/02/13 04:50:51;;;;;;;10.40;7.00;;;3.00;99.90;;;;;;5078552;28;20203;-74
2022/02/13 04:53:17;;;;;;;12.50;7.20;;;3.10;99.90;;;;;;5077462;28;20456;-73
2022/02/13 04:55:43;;;;;;;9.47;7.03;;;2.90;99.90;;;;;;5080012;28;20205;-73
2022/02/13 04:58:08;;;;;;;8.37;6.53;;;2.90;99.90;;;;;;5061255;28;20236;-74
2022/02/13 05:00:34;;;;;;;10.27;7.20;;;3.00;99.90;;;;;;5079403;28;20217;-74
2022/02/13 05:02:59;;;;;;;15.20;7.50;;;3.00;99.90;;;;;;5063770;28;20652;-74
2022/02/13 05:05:25;;;;;;;14.17;7.90;;;3.00;99.90;;;;;;5079498;28;20261;-74
2022/02/13 05:07:51;;;;;;;11.20;7.30;;;2.90;99.90;;;;;;5078537;28;20624;-74
2022/02/13 05:10:16;;;;;;;14.90;8.00;;;2.80;99.90;;;;;;5076318;28;20260;-74
2022/02/13 05:12:42;;;;;;;9.87;7.10;;;2.80;99.90;;;;;;5082562;28;20191;-74
2022/02/13 05:15:09;;;;;;;10.00;6.33;;;2.90;99.90;;;;;;5085716;28;20210;-73
2022/02/13 05:17:36;;;;;;;9.90;6.50;;;3.00;99.90;;;;;;5083111;28;20706;-73
2022/02/13 05:20:06;;;;;;;8.70;6.60;;;2.90;99.90;;;;;;5083323;28;20535;-73
2022/02/13 05:22:31;;;;;;;11.57;7.30;;;2.90;99.90;;;;;;5081864;28;21697;-73
2022/02/13 05:24:57;;;;;;;11.50;7.20;;;3.00;99.90;;;;;;5077339;28;20504;-73
2022/02/13 05:27:23;;;;;;;9.53;6.63;;;3.10;99.90;;;;;;5060793;28;20182;-74
2022/02/13 05:29:49;;;;;;;11.20;7.23;;;3.10;99.90;;;;;;5079095;28;21737;-73
2022/02/13 05:32:14;;;;;;;11.43;6.40;;;3.20;99.90;;;;;;5078156;28;20175;-74
2022/02/13 05:34:40;;;;;;;9.53;6.20;;;3.10;99.90;;;;;;5079420;28;20214;-74
2022/02/13 05:37:06;;;;;;;9.13;6.90;;;3.10;99.90;;;;;;5079554;28;20256;-73
2022/02/13 05:39:33;;;;;;;9.67;6.70;;;3.20;99.90;;;;;;5080467;28;21888;-74
2022/02/13 05:41:58;;;;;;;12.83;6.20;;;3.20;99.90;;;;;;5082033;28;20489;-73
2022/02/13 05:44:25;;;;;;;9.27;5.93;;;3.10;99.90;;;;;;5067637;28;20437;-73
2022/02/13 05:46:50;;;;;;;10.63;6.30;;;3.00;99.90;;;;;;5085517;28;20177;-74
2022/02/13 05:49:16;;;;;;;8.70;6.17;;;2.60;99.90;;;;;;5084868;28;20493;-74
2022/02/13 05:51:42;;;;;;;10.80;6.37;;;2.70;99.90;;;;;;5086191;28;20195;-74
2022/02/13 05:54:08;;;;;;;7.40;5.77;;;2.80;99.90;;;;;;5084755;28;20707;-74
2022/02/13 05:56:34;;;;;;;9.63;6.20;;;2.80;99.90;;;;;;5081037;28;20250;-74
2022/02/13 05:59:00;;;;;;;11.70;6.67;;;2.90;99.90;;;;;;5083191;28;22823;-74
2022/02/13 06:01:27;;;;;;;15.63;7.23;;;3.00;99.90;;;;;;5082120;28;20547;-74
2022/02/13 06:03:52;;;;;;;9.60;6.87;;;3.00;99.90;;;;;;5081052;28;20525;-74
2022/02/13 06:06:18;;;;;;;11.30;7.97;;;2.90;99.90;;;;;;5079366;28;20440;-74
2022/02/13 06:08:44;;;;;;;11.53;7.07;;;3.00;99.90;;;;;;5063795;28;20212;-74
2022/02/13 06:11:12;;;;;;;10.57;6.83;;;3.00;99.90;;;;;;5060288;28;20255;-74
2022/02/13 06:13:38;;;;;;;11.90;8.33;;;2.80;99.90;;;;;;5081357;28;20783;-75
2022/02/13 06:16:06;;;;;;;12.67;7.00;;;2.70;99.90;;;;;;5076690;28;20472;-74
2022/02/13 06:18:32;;;;;;;15.33;7.67;;;2.80;99.90;;;;;;5059853;28;20437;-75
2022/02/13 06:20:58;;;;;;;16.13;7.90;;;2.80;99.90;;;;;;5077699;28;20451;-74
2022/02/13 06:23:23;;;;;;;11.67;7.67;;;2.80;99.90;;;;;;5078450;28;20443;-73
2022/02/13 06:25:49;;;;;;;12.73;7.70;;;2.90;99.90;;;;;;5057458;28;20244;-74
2022/02/13 06:28:15;;;;;;;16.20;7.90;;;3.00;99.90;;;;;;5077114;28;21227;-73
2022/02/13 06:30:41;;;;;;;14.20;8.63;;;3.00;99.90;;;;;;5076466;28;20220;-73
2022/02/13 06:33:07;;;;;;;13.37;8.00;;;3.10;99.90;;;;;;5076151;28;20214;-73
2022/02/13 06:35:33;;;;;;;11.10;7.43;;;3.10;99.90;;;;;;5079758;28;20464;-73
2022/02/13 06:38:01;;;;;;;11.63;6.93;;;3.00;99.90;;;;;;5061556;28;20300;-73
2022/02/13 06:40:27;;;;;;;12.83;8.10;;;3.00;99.90;;;;;;5080451;28;20524;-73
2022/02/13 06:42:53;;;;;;;13.83;8.23;;;3.00;99.90;;;;;;5080439;28;20473;-72
2022/02/13 06:45:19;;;;;;;11.90;7.80;;;3.10;99.90;;;;;;5065139;28;20510;-74
2022/02/13 06:47:44;;;;;;;11.70;7.83;;;3.10;99.90;;;;;;5078606;28;20490;-72
2022/02/13 06:50:10;;;;;;;11.33;7.27;;;2.90;99.90;;;;;;5079273;28;20210;-71
2022/02/13 06:52:36;;;;;;;11.83;7.50;;;2.90;99.90;;;;;;5074342;28;20194;-72
2022/02/13 06:55:02;;;;;;;9.97;6.40;;;2.90;99.90;;;;;;5080724;28;20919;-72
2022/02/13 06:57:27;;;;;;;12.30;8.47;;;3.00;99.90;;;;;;5079679;28;20895;-72
2022/02/13 06:59:53;;;;;;;9.37;6.53;;;3.20;99.90;;;;;;5076064;28;20213;-73
2022/02/13 07:02:19;;;;;;;10.50;7.70;;;3.30;99.90;;;;;;5076532;28;20205;-72
2022/02/13 07:04:45;;;;;;;13.50;7.47;;;3.20;99.90;;;;;;5080407;28;20922;-73
2022/02/13 07:07:10;;;;;;;9.13;6.73;;;3.20;99.90;;;;;;5077314;28;20701;-72
2022/02/13 07:09:36;;;;;;;10.80;6.33;;;3.30;99.90;;;;;;5077750;28;20206;-72
2022/02/13 07:12:09;;;;;;;10.97;7.50;;;3.20;99.90;;;;;;5073929;28;20182;-73
2022/02/13 07:14:36;;;;;;;10.47;8.10;;;3.00;99.90;;;;;;5076491;28;20462;-72
2022/02/13 07:17:02;;;;;;;10.10;7.50;;;3.20;99.90;;;;;;5078864;28;21203;-72
2022/02/13 07:19:28;;;;;;;11.73;6.67;;;3.20;99.90;;;;;;5079511;28;21054;-73
2022/02/13 07:21:54;;;;;;;10.20;6.57;;;3.10;99.90;;;;;;5085040;28;20440;-72
2022/02/13 07:24:19;;;;;;;12.23;6.73;;;3.00;99.90;;;;;;5084099;28;21213;-72
2022/02/13 07:26:45;;;;;;;9.57;6.40;;;3.20;99.90;;;;;;5065643;28;20472;-72
2022/02/13 07:29:11;;;;;;;11.70;7.77;;;3.20;99.90;;;;;;5076882;28;20579;-72
2022/02/13 07:31:37;;;;;;;14.03;9.00;;;3.40;99.90;;;;;;5078684;28;20801;-72
2022/02/13 07:34:04;;;;;;;15.03;9.70;;;3.40;99.90;;;;;;5063589;28;20187;-76
2022/02/13 07:36:31;;;;;;;12.73;8.83;;;3.30;99.90;;;;;;5081191;28;20485;-71
2022/02/13 07:38:57;;;;;;;13.77;9.20;;;3.30;99.90;;;;;;5076837;28;20477;-71
2022/02/13 07:41:23;;;;;;;13.60;8.90;;;3.40;99.90;;;;;;5082019;28;20507;-72
2022/02/13 07:43:49;;;;;;;13.77;9.03;;;3.30;99.90;;;;;;5078122;28;20440;-72
2022/02/13 07:46:15;;;;;;;14.50;8.97;;;3.40;99.90;;;;;;5082167;28;20974;-72
2022/02/13 07:48:41;;;;;;;16.10;8.80;;;3.40;99.90;;;;;;5083403;28;20404;-72
2022/02/13 07:51:09;;;;;;;14.47;8.40;;;3.30;99.90;;;;;;5063397;28;20464;-71
2022/02/13 07:53:35;;;;;;;12.13;8.50;;;3.20;99.90;;;;;;5065663;28;20523;-72
2022/02/13 07:56:01;;;;;;;13.83;10.00;;;3.30;99.90;;;;;;5080905;28;20496;-72
2022/02/13 07:58:32;;;;;;;13.20;8.57;;;3.40;99.90;;;;;;5081537;28;20450;-72
2022/02/13 08:01:02;;;;;;;18.03;8.50;;;3.40;99.90;;;;;;5083916;28;20468;-72
2022/02/13 08:03:27;;;;;;;13.93;7.93;;;3.50;99.90;;;;;;5086003;28;20440;-72
2022/02/13 08:05:53;;;;;;;10.87;7.63;;;3.50;99.90;;;;;;5085687;28;20929;-72
2022/02/13 08:08:19;;;;;;;14.10;8.37;;;3.50;99.90;;;;;;5082390;28;20331;-72
2022/02/13 08:10:46;;;;;;;12.33;8.00;;;3.50;99.90;;;;;;5077845;28;20539;-73
2022/02/13 08:13:13;;;;;;;11.67;8.60;;;3.70;99.90;;;;;;5080239;28;20228;-72
2022/02/13 08:15:39;;;;;;;9.57;7.50;;;4.00;99.90;;;;;;5059028;28;20472;-73
2022/02/13 08:18:13;;;;;;;15.63;7.97;;;4.00;99.90;;;;;;5078096;28;20454;-72
2022/02/13 08:20:39;;;;;;;10.47;7.73;;;3.90;99.90;;;;;;5078363;28;20538;-73
2022/02/13 08:23:05;;;;;;;13.53;7.07;;;4.10;99.90;;;;;;5080513;28;20432;-73
2022/02/13 08:25:31;;;;;;;13.17;7.80;;;4.10;99.90;;;;;;5080298;28;20451;-73
2022/02/13 08:27:56;;;;;;;13.90;8.03;;;4.20;99.90;;;;;;5078448;28;20265;-73
2022/02/13 08:30:23;;;;;;;14.70;8.47;;;4.20;99.90;;;;;;5079636;28;20662;-72
2022/02/13 08:32:48;;;;;;;9.93;8.30;;;4.30;99.90;;;;;;5064065;28;20194;-72
2022/02/13 08:35:14;;;;;;;12.67;8.70;;;4.40;99.90;;;;;;5083163;28;20440;-73
2022/02/13 08:37:40;;;;;;;14.13;8.60;;;4.50;99.90;;;;;;5076494;28;20183;-73
2022/02/13 08:40:07;;;;;;;9.90;7.57;;;4.60;99.90;;;;;;5062663;28;20499;-72
2022/02/13 08:42:32;;;;;;;10.87;8.60;;;4.70;99.90;;;;;;5063074;28;20960;-73
2022/02/13 08:44:58;;;;;;;13.33;8.40;;;4.80;99.90;;;;;;5083336;28;20529;-72
2022/02/13 08:47:24;;;;;;;11.57;7.90;;;4.80;99.90;;;;;;5064033;28;20391;-73
2022/02/13 08:49:49;;;;;;;16.63;9.30;;;4.80;99.90;;;;;;5080924;28;20230;-73
2022/02/13 08:52:17;;;;;;;10.63;8.33;;;4.90;99.90;;;;;;5080544;28;20182;-73
2022/02/13 08:54:43;;;;;;;12.80;8.77;;;5.00;99.90;;;;;;5082768;28;20270;-73
2022/02/13 08:57:09;;;;;;;10.83;8.30;;;5.10;99.90;;;;;;5080553;28;20469;-73
2022/02/13 08:59:35;;;;;;;10.17;7.47;;;5.20;99.90;;;;;;5081483;28;20539;-73
2022/02/13 09:02:01;;;;;;;14.47;9.50;;;5.20;99.90;;;;;;5080757;28;20535;-73
2022/02/13 09:04:26;;;;;;;11.37;8.37;;;5.20;99.90;;;;;;5075758;28;20625;-73
2022/02/13 09:06:52;;;;;;;13.53;8.50;;;5.30;99.90;;;;;;5069801;28;20301;-73
2022/02/13 09:09:18;;;;;;;12.13;7.60;;;5.50;99.90;;;;;;5058756;28;20217;-73
2022/02/13 09:11:44;;;;;;;12.43;8.23;;;5.50;99.90;;;;;;5080937;28;20189;-72
2022/02/13 09:14:12;;;;;;;12.63;9.13;;;5.60;99.90;;;;;;5081857;28;20475;-72
2022/02/13 09:16:38;;;;;;;14.40;9.50;;;5.30;99.90;;;;;;5084390;28;20206;-73
2022/02/13 09:19:05;;;;;;;12.43;9.10;;;5.40;99.90;;;;;;5081139;28;20432;-71
2022/02/13 09:21:30;;;;;;;14.27;9.20;;;5.50;99.90;;;;;;5081043;28;20190;-72
2022/02/13 09:23:56;;;;;;;12.37;8.97;;;5.70;99.90;;;;;;5083663;28;20447;-72
2022/02/13 09:26:22;;;;;;;11.03;8.80;;;5.70;99.90;;;;;;5082909;28;20190;-72
2022/02/13 09:28:47;;;;;;;10.90;8.50;;;5.80;99.90;;;;;;5085662;28;20216;-72
2022/02/13 09:31:13;;;;;;;14.93;9.43;;;5.80;99.90;;;;;;5084604;28;20206;-72
2022/02/13 09:33:39;;;;;;;11.17;8.80;;;5.70;99.90;;;;;;5085328;28;20190;-72
2022/02/13 09:36:04;;;;;;;11.73;8.73;;;5.80;99.90;;;;;;5083257;28;20210;-72
2022/02/13 09:38:30;;;;;;;11.00;8.97;;;5.90;99.90;;;;;;5083403;28;20189;-73
2022/02/13 09:40:57;;;;;;;11.43;9.23;;;6.00;99.90;;;;;;5077823;28;20988;-72
2022/02/13 09:43:22;;;;;;;10.17;8.20;;;6.10;99.90;;;;;;5082240;28;20195;-72
2022/02/13 09:45:51;;;;;;;12.50;8.93;;;6.10;99.90;;;;;;5067909;28;20429;-73
2022/02/13 09:48:20;;;;;;;15.70;9.20;;;6.10;99.90;;;;;;5060236;28;20190;-72
2022/02/13 09:50:47;;;;;;;13.33;9.43;;;6.00;99.90;;;;;;5064900;28;22095;-72
2022/02/13 09:53:17;;;;;;;12.90;10.07;;;6.10;99.90;;;;;;5084002;28;20514;-73
2022/02/13 09:55:44;;;;;;;12.27;9.10;;;6.00;99.90;;;;;;5082839;28;20567;-72
2022/02/13 09:58:10;;;;;;;13.70;10.10;;;6.30;99.90;;;;;;5083462;28;20538;-72
2022/02/13 10:00:59;;;;;;;10.43;9.17;;;6.20;99.90;;;;;;5081896;28;20464;-72
2022/02/13 10:03:35;;;;;;;16.20;8.70;;;6.10;99.90;;;;;;5062051;28;20845;-71
2022/02/13 10:06:19;;;;;;;16.17;9.07;;;6.10;99.90;;;;;;5078761;28;20594;-72
2022/02/13 10:08:48;;;;;;;13.07;9.37;;;6.20;99.90;;;;;;5081724;28;21084;-72
2022/02/13 10:11:18;;;;;;;14.03;8.70;;;6.50;99.90;;;;;;5076664;28;20471;-72
2022/02/13 10:13:51;;;;;;;15.73;9.50;;;6.70;99.90;;;;;;5084612;28;20957;-72
2022/02/13 10:16:20;;;;;;;12.87;9.37;;;6.80;99.90;;;;;;5081913;28;20467;-73
2022/02/13 10:18:54;;;;;;;16.50;9.67;;;6.70;99.90;;;;;;5080152;28;20797;-73
2022/02/13 10:21:45;;;;;;;15.63;9.80;;;6.70;99.90;;;;;;5062109;28;20506;-72
2022/02/13 10:24:27;;;;;;;12.70;8.70;;;6.90;99.90;;;;;;5079786;28;22982;-72
2022/02/13 10:27:11;;;;;;;15.43;10.50;;;7.00;99.90;;;;;;5076996;28;21392;-72
2022/02/13 10:29:46;;;;;;;13.03;9.70;;;7.20;99.90;;;;;;5077922;28;20465;-72
2022/02/13 10:32:28;;;;;;;14.93;9.70;;;7.40;99.90;;;;;;5079803;28;20428;-74
2022/02/13 10:35:10;;;;;;;14.80;9.37;;;7.50;99.90;;;;;;5079828;28;20515;-75
2022/02/13 10:37:45;;;;;;;14.10;10.47;;;7.50;99.90;;;;;;5078055;28;20436;-74
2022/02/13 10:40:20;;;;;;;17.80;10.17;;;7.60;99.90;;;;;;5080702;28;20896;-75
2022/02/13 10:42:46;;;;;;;12.30;9.97;;;7.60;99.90;;;;;;5081740;28;21227;-73
2022/02/13 10:45:24;;;;;;;17.13;9.90;;;7.60;99.90;;;;;;5079654;28;20535;-75
2022/02/13 10:47:51;;;;;;;11.03;8.60;;;7.80;99.90;;;;;;5064642;28;20917;-73
2022/02/13 10:50:19;;;;;;;14.00;9.30;;;7.60;99.90;;;;;;5081693;28;20456;-73
2022/02/13 10:52:47;;;;;;;16.20;8.97;;;7.60;99.90;;;;;;5071643;28;20477;-75
2022/02/13 10:55:13;;;;;;;12.53;9.50;;;7.50;99.90;;;;;;5081061;28;20510;-75
2022/02/13 10:57:41;;;;;;;13.20;8.97;;;7.70;99.90;;;;;;5082293;28;20435;-75
2022/02/13 11:00:08;;;;;;;16.70;9.23;;;7.80;99.90;;;;;;5081538;28;20520;-72
2022/02/13 11:02:36;;;;;;;14.07;9.40;;;7.90;99.90;;;;;;5062921;28;21020;-75
2022/02/13 11:05:02;;;;;;;12.40;9.10;;;8.00;99.90;;;;;;5084562;28;20428;-75
2022/02/13 11:07:29;;;;;;;13.63;9.23;;;8.00;99.90;;;;;;5080803;28;20435;-76
2022/02/13 11:09:56;;;;;;;18.03;9.00;;;8.10;99.90;;;;;;5081656;28;20961;-74
2022/02/13 11:12:22;;;;;;;13.37;8.73;;;8.20;99.90;;;;;;5076380;28;20923;-75
2022/02/13 11:14:48;;;;;;;11.93;8.47;;;8.30;99.90;;;;;;5079361;28;20458;-74
2022/02/13 11:17:34;;;;;;;11.27;8.10;;;8.40;99.90;;;;;;5063933;28;20973;-75
2022/02/13 11:20:04;;;;;;;9.20;8.17;;;8.50;99.90;;;;;;5059730;28;20448;-74
2022/02/13 11:22:36;;;;;;;10.57;8.77;;;8.70;99.90;;;;;;5079886;28;20943;-74
2022/02/13 11:25:06;;;;;;;12.00;10.00;;;8.80;99.90;;;;;;5080453;28;20465;-74
2022/02/13 11:27:53;;;;;;;14.17;9.10;;;8.90;99.90;;;;;;5061391;28;20449;-74
2022/02/13 11:30:44;;;;;;;12.73;9.13;;;8.80;99.90;;;;;;5065040;28;20452;-74
2022/02/13 11:33:28;;;;;;;11.73;7.67;;;8.90;99.90;;;;;;5085277;28;20448;-74
2022/02/13 11:35:54;;;;;;;12.90;7.83;;;8.90;99.90;;;;;;5073597;28;20461;-74
2022/02/13 11:38:47;;;;;;;10.13;7.80;;;9.00;99.90;;;;;;5089367;28;20473;-74
2022/02/13 11:41:19;;;;;;;10.57;7.70;;;9.10;99.90;;;;;;5093200;28;20443;-74
2022/02/13 11:43:45;;;;;;;10.03;7.53;;;9.10;99.90;;;;;;5092911;28;20435;-74
2022/02/13 11:46:25;;;;;;;11.57;7.63;;;9.10;99.90;;;;;;5087452;28;20424;-75
2022/02/13 11:48:57;;;;;;;10.53;8.67;;;9.20;99.90;;;;;;5062117;28;23638;-72
2022/02/13 11:51:45;;;;;;;13.10;8.33;;;9.40;99.90;;;;;;5062043;28;20874;-75
2022/02/13 11:54:44;;;;;;;11.60;7.90;;;9.60;99.90;;;;;;5082289;28;20462;-77
2022/02/13 11:57:19;;;;;;;16.37;8.93;;;9.70;99.90;;;;;;5056978;28;20460;-74
2022/02/13 11:59:51;;;;;;;9.80;7.57;;;9.80;99.90;;;;;;5064259;28;20513;-76
2022/02/13 12:02:36;;;;;;;15.07;9.50;;;9.90;99.90;;;;;;5060177;28;20508;-76
2022/02/13 12:05:07;;;;;;;12.63;8.07;;;10.00;99.90;;;;;;5079548;28;20436;-73
2022/02/13 12:07:34;;;;;;;10.23;8.00;;;10.00;99.90;;;;;;5080252;28;20417;-75
2022/02/13 12:10:00;;;;;;;11.30;8.77;;;10.20;99.90;;;;;;5060972;28;20453;-72
2022/02/13 12:12:28;;;;;;;9.60;7.67;;;10.90;99.90;;;;;;5080396;28;20413;-74
2022/02/13 12:14:54;;;;;;;15.17;8.27;;;12.80;99.90;;;;;;5063603;28;20429;-76
2022/02/13 12:17:27;;;;;;;8.70;7.80;;;14.60;99.90;;;;;;5078393;28;20497;-75
2022/02/13 12:20:04;;;;;;;10.03;7.90;;;16.50;99.90;;;;;;5076471;28;20927;-76
2022/02/13 12:22:31;;;;;;;12.23;7.70;;;18.10;93.20;;;;;;5074893;28;20467;-74
2022/02/13 12:25:01;;;;;;;9.00;7.37;;;19.40;84.10;;;;;;5079909;28;21456;-75
2022/02/13 12:27:27;;;;;;;9.50;7.80;;;20.40;75.50;;;;;;5075879;28;20972;-75
2022/02/13 12:29:55;;;;;;;9.63;8.30;;;21.10;68.40;;;;;;5081507;28;20456;-75
2022/02/13 12:32:30;;;;;;;10.13;8.27;;;21.20;63.20;;;;;;5046310;28;20438;-75
2022/02/13 12:35:07;;;;;;;14.03;8.43;;;21.00;62.80;;;;;;5079434;28;20833;-75
2022/02/13 12:37:35;;;;;;;9.40;7.80;;;21.00;59.60;;;;;;5075624;28;20432;-75
2022/02/13 12:40:01;;;;;;;18.40;13.17;;;19.90;59.10;;;;;;5080503;28;20451;-75
2022/02/13 12:42:29;;;;;;;11.83;7.77;;;20.70;63.10;;;;;;5080794;28;20879;-75
2022/02/13 12:45:00;;;;;;;10.43;7.70;;;20.50;58.20;;;;;;5063467;28;20413;-75
2022/02/13 12:47:31;;;;;;;9.40;8.00;;;20.70;58.60;;;;;;5080940;28;20519;-75